Time;durP1;ratioP1;P1;durP2;ratioP2;P2;SDS_P1;SDS_P2;PMS_P1;PMS_P2;Temp;Humidity;BMP_temperature;BMP_pressure;BME280_temperature;BME280_humidity;BME280_pressure;Samples;Min_cycle;Max_cycle;Signal;HPM_P1;HPM_P2
2022/06/19 00:00:42;;;;;;;0.20;0.00;;;23.90;99.90;;;;;;21150998;28;20284;-73
2022/06/19 00:10:48;;;;;;;0.20;0.00;;;23.90;99.90;;;;;;21154491;28;20219;-72
2022/06/19 00:20:52;;;;;;;0.20;0.00;;;23.90;99.90;;;;;;21184797;28;20211;-72
2022/06/19 00:30:57;;;;;;;0.20;0.00;;;23.90;99.90;;;;;;21181003;28;20343;-73
2022/06/19 00:41:02;;;;;;;0.20;0.00;;;23.90;99.90;;;;;;21183296;28;20216;-73
2022/06/19 00:51:09;;;;;;;0.20;0.00;;;23.60;99.90;;;;;;21183250;28;20224;-73
2022/06/19 01:01:16;;;;;;;0.20;0.00;;;23.50;99.90;;;;;;21181977;28;20234;-72
2022/06/19 01:11:23;;;;;;;0.20;0.00;;;23.00;99.90;;;;;;21196440;28;20251;-73
2022/06/19 01:21:31;;;;;;;0.20;0.00;;;22.80;99.90;;;;;;21177093;28;20254;-73
2022/06/19 01:31:42;;;;;;;0.20;0.00;;;22.60;99.90;;;;;;21140426;28;20211;-74
2022/06/19 01:41:46;;;;;;;0.20;0.00;;;22.20;99.90;;;;;;21138722;28;20235;-72
2022/06/19 01:51:53;;;;;;;0.20;0.00;;;22.20;99.90;;;;;;21139184;28;20963;-73
2022/06/19 02:02:00;;;;;;;0.20;0.00;;;22.30;99.90;;;;;;21137601;28;20258;-73
2022/06/19 02:12:06;;;;;;;0.20;0.00;;;22.30;99.90;;;;;;21140026;28;20251;-73
2022/06/19 02:22:12;;;;;;;0.20;0.00;;;22.30;99.90;;;;;;21138546;28;20238;-74
2022/06/19 02:32:22;;;;;;;0.20;0.00;;;22.40;99.90;;;;;;21136562;28;20216;-74
2022/06/19 02:42:36;;;;;;;0.20;0.00;;;22.20;99.90;;;;;;21138851;28;20239;-74
2022/06/19 02:52:41;;;;;;;0.20;0.00;;;22.40;99.90;;;;;;21137361;28;20276;-74
2022/06/19 03:02:45;;;;;;;0.20;0.00;;;22.60;99.90;;;;;;21152228;28;20248;-75
2022/06/19 03:12:50;;;;;;;0.20;0.00;;;22.20;99.90;;;;;;21152740;28;20212;-74
2022/06/19 03:22:54;;;;;;;0.20;0.00;;;22.30;99.90;;;;;;21148048;28;20231;-75
2022/06/19 03:33:00;;;;;;;0.20;0.00;;;22.10;99.90;;;;;;21149918;28;20211;-74
2022/06/19 03:43:04;;;;;;;0.20;0.00;;;21.90;99.90;;;;;;21147611;28;20279;-74
2022/06/19 03:53:09;;;;;;;0.20;0.10;;;22.00;99.90;;;;;;21147577;28;20215;-74
2022/06/19 04:03:12;;;;;;;0.20;0.00;;;21.90;99.90;;;;;;21144353;28;20222;-73
2022/06/19 04:13:18;;;;;;;0.20;0.00;;;22.30;99.90;;;;;;21141651;28;20287;-72
2022/06/19 04:23:22;;;;;;;0.20;0.00;;;22.70;99.90;;;;;;21143385;28;20220;-72
2022/06/19 04:33:27;;;;;;;0.20;0.00;;;22.90;99.90;;;;;;21145689;28;20226;-71
2022/06/19 04:43:31;;;;;;;0.20;0.00;;;23.00;99.90;;;;;;21144614;28;20215;-73
2022/06/19 04:53:39;;;;;;;0.20;0.00;;;23.10;99.90;;;;;;21143739;28;20211;-72
2022/06/19 05:03:43;;;;;;;0.20;0.00;;;23.40;99.90;;;;;;21141243;28;20254;-72
2022/06/19 05:13:48;;;;;;;0.20;0.00;;;23.80;99.90;;;;;;21141279;28;20283;-74
2022/06/19 05:23:54;;;;;;;0.20;0.00;;;24.10;99.90;;;;;;21141592;28;20233;-73
2022/06/19 05:33:59;;;;;;;0.20;0.00;;;24.20;99.90;;;;;;21140408;28;20239;-73
2022/06/19 05:44:12;;;;;;;0.20;0.00;;;24.30;99.90;;;;;;21138847;28;20278;-74
2022/06/19 05:54:17;;;;;;;0.20;0.10;;;24.50;99.90;;;;;;21138764;28;20216;-74
2022/06/19 06:04:22;;;;;;;0.20;0.00;;;24.60;99.90;;;;;;21138071;28;20244;-74
2022/06/19 06:14:28;;;;;;;0.20;0.00;;;24.90;99.90;;;;;;21138841;28;20332;-73
2022/06/19 06:24:32;;;;;;;0.20;0.00;;;25.20;99.90;;;;;;21134305;28;20327;-73
2022/06/19 06:34:37;;;;;;;0.20;0.00;;;25.40;99.90;;;;;;21145979;28;20211;-73
2022/06/19 06:44:41;;;;;;;0.20;0.00;;;25.50;99.90;;;;;;21150905;28;20215;-73
2022/06/19 06:54:46;;;;;;;0.20;0.00;;;25.80;99.90;;;;;;21151694;28;20253;-74
2022/06/19 07:04:50;;;;;;;0.20;0.00;;;26.10;99.90;;;;;;21150581;28;20259;-74
2022/06/19 07:14:56;;;;;;;0.20;0.00;;;26.30;99.90;;;;;;21149329;28;20224;-74
2022/06/19 07:24:59;;;;;;;0.20;0.00;;;26.50;99.90;;;;;;21148859;28;20207;-74
2022/06/19 07:35:05;;;;;;;0.20;0.00;;;26.50;99.90;;;;;;21147020;28;20283;-74
2022/06/19 07:45:10;;;;;;;0.20;0.00;;;26.50;99.90;;;;;;21145952;28;20184;-74
2022/06/19 07:55:20;;;;;;;0.20;0.03;;;26.40;99.90;;;;;;21144237;28;20243;-75
2022/06/19 08:05:27;;;;;;;0.20;0.00;;;26.40;99.90;;;;;;21184096;28;20292;-73
2022/06/19 08:15:33;;;;;;;0.20;0.00;;;26.60;99.90;;;;;;21180850;28;20219;-73
2022/06/19 08:25:37;;;;;;;0.20;0.00;;;26.70;99.90;;;;;;21190319;28;20215;-72
2022/06/19 08:35:45;;;;;;;0.20;0.00;;;26.50;99.90;;;;;;21200072;28;20225;-73
2022/06/19 08:46:01;;;;;;;0.20;0.00;;;26.70;99.90;;;;;;21180226;28;20263;-73
2022/06/19 08:56:16;;;;;;;0.20;0.00;;;26.70;99.90;;;;;;21178657;28;20244;-74
2022/06/19 09:06:27;;;;;;;0.20;0.00;;;26.90;99.90;;;;;;21177904;28;20274;-73
2022/06/19 09:16:39;;;;;;;0.20;0.00;;;27.10;99.90;;;;;;21176925;28;20234;-68
2022/06/19 09:26:47;;;;;;;0.20;0.00;;;27.10;99.90;;;;;;21175816;28;20184;-72
2022/06/19 09:36:59;;;;;;;0.20;0.00;;;27.10;99.90;;;;;;21174795;28;20223;-74
2022/06/19 09:47:12;;;;;;;0.20;0.00;;;27.30;99.90;;;;;;21176078;28;20187;-72
2022/06/19 09:57:23;;;;;;;0.20;0.00;;;27.70;99.90;;;;;;21178610;28;20393;-74
2022/06/19 10:07:40;;;;;;;0.20;0.00;;;27.60;99.90;;;;;;21172952;28;20239;-75
2022/06/19 10:17:52;;;;;;;0.20;0.00;;;27.60;99.90;;;;;;21149539;28;20227;-74
2022/06/19 10:28:04;;;;;;;0.20;0.00;;;27.80;99.90;;;;;;21148763;28;20200;-74
2022/06/19 10:38:30;;;;;;;0.20;0.00;;;27.90;99.90;;;;;;21148200;28;20279;-74
2022/06/19 10:48:44;;;;;;;0.20;0.00;;;28.60;99.90;;;;;;21161689;28;20206;-75
2022/06/19 10:58:51;;;;;;;0.20;0.00;;;29.00;99.90;;;;;;21146460;28;20303;-73
2022/06/19 11:08:59;;;;;;;0.20;0.00;;;29.70;99.90;;;;;;21136913;28;20241;-75
2022/06/19 11:19:04;;;;;;;0.20;0.00;;;29.60;99.90;;;;;;21186465;28;20282;-73
2022/06/19 11:29:18;;;;;;;0.20;0.00;;;29.30;99.90;;;;;;21183767;28;20211;-72
2022/06/19 11:39:36;;;;;;;0.20;0.00;;;30.10;99.90;;;;;;21185795;28;20278;-74
2022/06/19 11:49:41;;;;;;;0.20;0.00;;;30.20;99.90;;;;;;21148856;28;20212;-73
2022/06/19 11:59:47;;;;;;;0.20;0.00;;;30.40;99.90;;;;;;21143666;28;20251;-78
2022/06/19 12:09:57;;;;;;;0.20;0.00;;;31.20;99.90;;;;;;21151959;28;20228;-75
2022/06/19 12:20:20;;;;;;;0.20;0.00;;;30.70;99.90;;;;;;21147902;28;20231;-76
2022/06/19 12:30:40;;;;;;;0.20;0.00;;;31.50;99.90;;;;;;21143308;28;20257;-76
2022/06/19 12:40:54;;;;;;;0.20;0.00;;;31.30;99.90;;;;;;21184302;28;20246;-78
2022/06/19 12:51:04;;;;;;;0.20;0.00;;;32.00;99.90;;;;;;21205516;28;20187;-78
2022/06/19 13:01:19;;;;;;;0.20;0.00;;;31.30;99.90;;;;;;21216345;28;20242;-78
2022/06/19 13:11:37;;;;;;;0.20;0.00;;;32.10;99.90;;;;;;21226374;28;20195;-77
2022/06/19 13:21:51;;;;;;;0.20;0.00;;;32.00;99.90;;;;;;21221499;28;20302;-68
2022/06/19 13:32:01;;;;;;;0.20;0.00;;;31.40;99.90;;;;;;21206523;28;20202;-76
2022/06/19 13:42:23;;;;;;;0.20;0.00;;;31.50;99.90;;;;;;21221342;28;20233;-77
2022/06/19 13:52:39;;;;;;;0.20;0.00;;;31.50;99.90;;;;;;21220568;28;20206;-75
2022/06/19 14:03:02;;;;;;;0.20;0.00;;;31.60;99.90;;;;;;21184219;28;20231;-73
2022/06/19 14:13:13;;;;;;;0.20;0.00;;;30.90;99.90;;;;;;21134687;28;20246;-75
2022/06/19 14:23:22;;;;;;;0.20;0.00;;;32.20;99.90;;;;;;21133642;28;20257;-75
2022/06/19 14:33:45;;;;;;;1.08;1.08;;;32.60;99.90;;;;;;21134940;28;20199;-72
2022/06/19 14:44:00;;;;;;;0.20;0.00;;;32.60;99.90;;;;;;21141628;28;20235;-76
2022/06/19 14:54:30;;;;;;;0.20;0.00;;;33.10;99.90;;;;;;21155531;28;20202;-76
2022/06/19 15:04:36;;;;;;;0.20;0.00;;;32.70;99.90;;;;;;21148004;28;20251;-75
2022/06/19 15:14:49;;;;;;;0.20;0.00;;;33.40;99.90;;;;;;21143038;28;20271;-74
2022/06/19 15:25:21;;;;;;;0.20;0.00;;;33.00;99.90;;;;;;21146223;28;20223;-71
2022/06/19 15:36:00;;;;;;;0.20;0.00;;;32.80;99.90;;;;;;21142746;28;20259;-73
2022/06/19 15:46:09;;;;;;;0.20;0.10;;;33.30;99.90;;;;;;21139745;28;20251;-74
2022/06/19 15:56:23;;;;;;;0.20;0.00;;;33.00;99.90;;;;;;21142206;28;20228;-75
2022/06/19 16:06:34;;;;;;;0.20;0.00;;;33.20;99.90;;;;;;21140763;28;20259;-74
2022/06/19 16:16:48;;;;;;;0.20;0.00;;;33.20;99.90;;;;;;21140620;28;20262;-74
2022/06/19 16:26:56;;;;;;;0.20;0.00;;;33.80;99.90;;;;;;21140409;28;20191;-76
2022/06/19 16:47:27;;;;;;;0.20;0.00;;;33.40;99.90;;;;;;21103609;28;20569;-71
2022/06/19 16:57:33;;;;;;;0.20;0.00;;;33.10;99.90;;;;;;21207500;28;20239;-79
2022/06/19 17:18:00;;;;;;;0.20;0.00;;;32.70;99.90;;;;;;21221142;28;20257;-73
2022/06/19 17:28:09;;;;;;;0.20;0.00;;;31.80;99.90;;;;;;21218727;28;20220;-75
2022/06/19 17:38:24;;;;;;;0.20;0.00;;;32.10;99.90;;;;;;21220496;28;20245;-77
2022/06/19 17:48:33;;;;;;;0.20;0.00;;;32.10;99.90;;;;;;21219847;28;20203;-75
2022/06/19 17:58:51;;;;;;;0.20;0.00;;;32.20;99.90;;;;;;21215919;28;20237;-76
2022/06/19 18:08:56;;;;;;;0.20;0.00;;;31.50;99.90;;;;;;21215052;28;20295;-74
2022/06/19 18:19:01;;;;;;;0.20;0.00;;;31.20;99.90;;;;;;21218337;28;20243;-75
2022/06/19 18:29:11;;;;;;;0.20;0.00;;;31.00;99.90;;;;;;21228574;28;20222;-74
2022/06/19 18:39:21;;;;;;;0.20;0.00;;;30.90;99.90;;;;;;21232462;28;20234;-75
2022/06/19 18:49:30;;;;;;;0.20;0.00;;;30.00;99.90;;;;;;21233783;28;20263;-76
2022/06/19 18:59:34;;;;;;;0.20;0.10;;;29.10;99.90;;;;;;21235371;27;20227;-74
2022/06/19 19:09:42;;;;;;;0.20;0.10;;;28.20;99.90;;;;;;21232074;28;20243;-74
2022/06/19 19:19:46;;;;;;;0.20;0.00;;;27.60;99.90;;;;;;21282484;22;20250;-77
2022/06/19 19:29:56;;;;;;;0.20;0.00;;;27.20;99.90;;;;;;21233534;28;20198;-74
2022/06/19 19:40:00;;;;;;;0.20;0.10;;;27.20;99.90;;;;;;21215419;28;20344;-74
2022/06/19 19:50:06;;;;;;;0.20;0.05;;;26.80;99.90;;;;;;21213092;28;20203;-74
2022/06/19 20:00:12;;;;;;;0.20;0.00;;;26.60;99.90;;;;;;21227903;28;20234;-75
2022/06/19 20:20:43;;;;;;;0.20;0.10;;;26.60;99.90;;;;;;21208795;28;20434;-75
2022/06/19 20:30:48;;;;;;;0.20;0.00;;;26.40;99.90;;;;;;21227266;28;20222;-74
2022/06/19 20:40:54;;;;;;;0.20;0.00;;;26.20;99.90;;;;;;21227672;28;20245;-75
2022/06/19 20:50:59;;;;;;;0.20;0.00;;;26.20;99.90;;;;;;21228401;28;20211;-74
2022/06/19 21:01:02;;;;;;;0.20;0.00;;;26.10;99.90;;;;;;21226366;28;20257;-73
2022/06/19 21:11:13;;;;;;;0.20;0.00;;;26.10;99.90;;;;;;21226072;28;20223;-73
2022/06/19 21:21:25;;;;;;;0.20;0.00;;;26.00;99.90;;;;;;21222301;28;20227;-74
2022/06/19 21:31:30;;;;;;;0.20;0.00;;;26.00;99.90;;;;;;21224064;28;20199;-74
2022/06/19 21:41:35;;;;;;;0.20;0.10;;;25.90;99.90;;;;;;21226053;28;20230;-72
2022/06/19 21:51:45;;;;;;;0.20;0.10;;;25.70;99.90;;;;;;21222329;28;20199;-73
2022/06/19 22:01:53;;;;;;;0.20;0.00;;;25.70;99.90;;;;;;21236886;28;20214;-72
2022/06/19 22:22:22;;;;;;;0.20;0.00;;;25.40;99.90;;;;;;21253180;28;20230;-72
2022/06/19 22:32:27;;;;;;;0.20;0.00;;;25.30;99.90;;;;;;21250713;28;20296;-72
2022/06/19 22:42:35;;;;;;;0.20;0.00;;;25.40;99.90;;;;;;21253610;28;20245;-72
2022/06/19 22:52:41;;;;;;;0.20;0.00;;;25.20;99.90;;;;;;21253327;27;20229;-71
2022/06/19 23:02:48;;;;;;;0.20;0.00;;;25.20;99.90;;;;;;21252305;27;20207;-71
2022/06/19 23:12:54;;;;;;;0.20;0.10;;;25.00;99.90;;;;;;21244617;28;20202;-71
2022/06/19 23:23:02;;;;;;;0.20;0.00;;;25.00;99.90;;;;;;21234742;28;20223;-73
2022/06/19 23:33:11;;;;;;;0.20;0.00;;;25.00;99.90;;;;;;21237534;28;20187;-71
2022/06/19 23:43:18;;;;;;;0.20;0.00;;;24.90;99.90;;;;;;21236072;28;20238;-71
2022/06/19 23:53:23;;;;;;;0.20;0.00;;;24.90;99.90;;;;;;21235084;28;20219;-71
